sensor_id;sensor_type;location;lat;lon;timestamp;P1;durP1;ratioP1;P2;durP2;ratioP2
45208;SDS011;30951;43.994;26.260;2023-08-06T00:01:25;15.95;;;9.65;;
45208;SDS011;30951;43.994;26.260;2023-08-06T00:03:51;12.35;;;9.65;;
45208;SDS011;30951;43.994;26.260;2023-08-06T00:06:16;11.45;;;9.07;;
45208;SDS011;30951;43.994;26.260;2023-08-06T00:08:42;11.70;;;9.65;;
45208;SDS011;30951;43.994;26.260;2023-08-06T00:11:07;11.48;;;9.65;;
45208;SDS011;30951;43.994;26.260;2023-08-06T00:13:33;13.70;;;10.10;;
45208;SDS011;30951;43.994;26.260;2023-08-06T00:16:11;13.93;;;9.48;;
45208;SDS011;30951;43.994;26.260;2023-08-06T00:18:38;15.02;;;9.82;;
45208;SDS011;30951;43.994;26.260;2023-08-06T00:21:03;14.00;;;9.77;;
45208;SDS011;30951;43.994;26.260;2023-08-06T00:23:29;15.05;;;9.75;;
45208;SDS011;30951;43.994;26.260;2023-08-06T00:25:55;16.23;;;9.73;;
45208;SDS011;30951;43.994;26.260;2023-08-06T00:28:20;11.38;;;10.18;;
45208;SDS011;30951;43.994;26.260;2023-08-06T00:30:46;17.58;;;10.65;;
45208;SDS011;30951;43.994;26.260;2023-08-06T00:33:11;15.55;;;9.75;;
45208;SDS011;30951;43.994;26.260;2023-08-06T00:35:37;11.30;;;10.15;;
45208;SDS011;30951;43.994;26.260;2023-08-06T00:38:02;14.13;;;10.60;;
45208;SDS011;30951;43.994;26.260;2023-08-06T00:40:27;16.92;;;11.13;;
45208;SDS011;30951;43.994;26.260;2023-08-06T00:42:56;15.18;;;11.32;;
45208;SDS011;30951;43.994;26.260;2023-08-06T00:45:21;14.55;;;11.15;;
45208;SDS011;30951;43.994;26.260;2023-08-06T00:47:48;19.23;;;12.30;;
45208;SDS011;30951;43.994;26.260;2023-08-06T00:50:13;14.75;;;11.57;;
45208;SDS011;30951;43.994;26.260;2023-08-06T00:52:39;14.85;;;11.55;;
45208;SDS011;30951;43.994;26.260;2023-08-06T00:55:05;18.60;;;12.10;;
45208;SDS011;30951;43.994;26.260;2023-08-06T00:57:31;14.23;;;11.98;;
45208;SDS011;30951;43.994;26.260;2023-08-06T00:59:56;13.80;;;12.40;;
45208;SDS011;30951;43.994;26.260;2023-08-06T01:02:22;15.43;;;12.63;;
45208;SDS011;30951;43.994;26.260;2023-08-06T01:04:47;14.98;;;12.13;;
45208;SDS011;30951;43.994;26.260;2023-08-06T01:09:57;22.00;;;12.65;;
45208;SDS011;30951;43.994;26.260;2023-08-06T01:12:45;14.82;;;13.20;;
45208;SDS011;30951;43.994;26.260;2023-08-06T01:15:18;15.43;;;13.43;;
45208;SDS011;30951;43.994;26.260;2023-08-06T01:17:45;19.23;;;13.60;;
45208;SDS011;30951;43.994;26.260;2023-08-06T01:20:11;14.55;;;13.13;;
45208;SDS011;30951;43.994;26.260;2023-08-06T01:22:37;18.10;;;14.00;;
45208;SDS011;30951;43.994;26.260;2023-08-06T01:25:02;18.58;;;15.15;;
45208;SDS011;30951;43.994;26.260;2023-08-06T01:27:29;24.50;;;14.77;;
45208;SDS011;30951;43.994;26.260;2023-08-06T01:30:03;19.23;;;13.70;;
45208;SDS011;30951;43.994;26.260;2023-08-06T01:34:56;22.30;;;14.43;;
45208;SDS011;30951;43.994;26.260;2023-08-06T01:37:24;21.52;;;13.90;;
45208;SDS011;30951;43.994;26.260;2023-08-06T01:39:50;19.60;;;13.45;;
45208;SDS011;30951;43.994;26.260;2023-08-06T01:42:15;20.20;;;14.63;;
45208;SDS011;30951;43.994;26.260;2023-08-06T01:44:41;20.05;;;14.15;;
45208;SDS011;30951;43.994;26.260;2023-08-06T01:47:06;16.38;;;12.38;;
45208;SDS011;30951;43.994;26.260;2023-08-06T01:49:32;17.83;;;12.98;;
45208;SDS011;30951;43.994;26.260;2023-08-06T01:51:57;16.35;;;13.55;;
45208;SDS011;30951;43.994;26.260;2023-08-06T01:54:23;16.35;;;14.48;;
45208;SDS011;30951;43.994;26.260;2023-08-06T01:56:48;20.50;;;15.10;;
45208;SDS011;30951;43.994;26.260;2023-08-06T01:59:14;19.80;;;15.38;;
45208;SDS011;30951;43.994;26.260;2023-08-06T02:01:39;22.38;;;16.65;;
45208;SDS011;30951;43.994;26.260;2023-08-06T02:04:04;22.73;;;16.40;;
45208;SDS011;30951;43.994;26.260;2023-08-06T02:06:30;24.88;;;16.70;;
45208;SDS011;30951;43.994;26.260;2023-08-06T02:08:55;28.77;;;17.17;;
45208;SDS011;30951;43.994;26.260;2023-08-06T02:11:21;23.05;;;16.02;;
45208;SDS011;30951;43.994;26.260;2023-08-06T02:13:46;17.92;;;15.25;;
45208;SDS011;30951;43.994;26.260;2023-08-06T02:16:12;19.40;;;15.20;;
45208;SDS011;30951;43.994;26.260;2023-08-06T02:18:37;23.25;;;16.30;;
45208;SDS011;30951;43.994;26.260;2023-08-06T02:21:03;25.17;;;17.90;;
45208;SDS011;30951;43.994;26.260;2023-08-06T02:23:28;23.40;;;19.13;;
45208;SDS011;30951;43.994;26.260;2023-08-06T02:25:58;22.48;;;18.02;;
45208;SDS011;30951;43.994;26.260;2023-08-06T02:28:28;29.02;;;17.73;;
45208;SDS011;30951;43.994;26.260;2023-08-06T02:30:54;21.55;;;17.40;;
45208;SDS011;30951;43.994;26.260;2023-08-06T02:33:20;21.60;;;18.40;;
45208;SDS011;30951;43.994;26.260;2023-08-06T02:35:45;24.23;;;19.05;;
45208;SDS011;30951;43.994;26.260;2023-08-06T02:38:11;27.42;;;19.85;;
45208;SDS011;30951;43.994;26.260;2023-08-06T02:40:36;27.20;;;19.77;;
45208;SDS011;30951;43.994;26.260;2023-08-06T02:43:02;35.47;;;21.10;;
45208;SDS011;30951;43.994;26.260;2023-08-06T02:45:28;30.58;;;19.58;;
45208;SDS011;30951;43.994;26.260;2023-08-06T02:47:54;23.90;;;19.15;;
45208;SDS011;30951;43.994;26.260;2023-08-06T02:50:19;26.35;;;19.65;;
45208;SDS011;30951;43.994;26.260;2023-08-06T02:52:45;22.50;;;18.90;;
45208;SDS011;30951;43.994;26.260;2023-08-06T02:55:10;24.35;;;17.92;;
45208;SDS011;30951;43.994;26.260;2023-08-06T02:57:36;25.60;;;18.27;;
45208;SDS011;30951;43.994;26.260;2023-08-06T03:00:01;19.85;;;16.65;;
45208;SDS011;30951;43.994;26.260;2023-08-06T03:02:27;20.85;;;17.30;;
45208;SDS011;30951;43.994;26.260;2023-08-06T03:04:53;24.95;;;18.00;;
45208;SDS011;30951;43.994;26.260;2023-08-06T03:07:18;21.00;;;18.73;;
45208;SDS011;30951;43.994;26.260;2023-08-06T03:09:44;26.73;;;19.42;;
45208;SDS011;30951;43.994;26.260;2023-08-06T03:12:09;31.05;;;20.63;;
45208;SDS011;30951;43.994;26.260;2023-08-06T03:14:34;31.75;;;21.95;;
45208;SDS011;30951;43.994;26.260;2023-08-06T03:17:00;27.67;;;21.33;;
45208;SDS011;30951;43.994;26.260;2023-08-06T03:19:25;32.58;;;22.13;;
45208;SDS011;30951;43.994;26.260;2023-08-06T03:21:51;27.75;;;20.77;;
45208;SDS011;30951;43.994;26.260;2023-08-06T03:24:16;23.50;;;20.15;;
45208;SDS011;30951;43.994;26.260;2023-08-06T03:26:42;22.63;;;18.88;;
45208;SDS011;30951;43.994;26.260;2023-08-06T03:29:08;26.08;;;20.50;;
45208;SDS011;30951;43.994;26.260;2023-08-06T03:31:33;28.92;;;19.13;;
45208;SDS011;30951;43.994;26.260;2023-08-06T03:33:59;29.08;;;19.80;;
45208;SDS011;30951;43.994;26.260;2023-08-06T03:36:24;26.52;;;18.75;;
45208;SDS011;30951;43.994;26.260;2023-08-06T03:38:49;24.00;;;18.33;;
45208;SDS011;30951;43.994;26.260;2023-08-06T03:41:15;24.00;;;18.85;;
45208;SDS011;30951;43.994;26.260;2023-08-06T03:43:40;21.98;;;19.27;;
45208;SDS011;30951;43.994;26.260;2023-08-06T03:46:06;21.48;;;17.23;;
45208;SDS011;30951;43.994;26.260;2023-08-06T03:48:31;22.70;;;17.95;;
45208;SDS011;30951;43.994;26.260;2023-08-06T03:50:57;24.50;;;18.20;;
45208;SDS011;30951;43.994;26.260;2023-08-06T03:53:22;23.80;;;16.95;;
45208;SDS011;30951;43.994;26.260;2023-08-06T03:55:48;18.20;;;15.32;;
45208;SDS011;30951;43.994;26.260;2023-08-06T03:58:13;13.50;;;12.10;;
45208;SDS011;30951;43.994;26.260;2023-08-06T04:00:39;10.45;;;9.45;;
45208;SDS011;30951;43.994;26.260;2023-08-06T04:03:04;9.88;;;8.70;;
45208;SDS011;30951;43.994;26.260;2023-08-06T04:05:33;11.95;;;6.70;;
45208;SDS011;30951;43.994;26.260;2023-08-06T04:07:58;10.07;;;5.93;;
45208;SDS011;30951;43.994;26.260;2023-08-06T04:10:25;10.50;;;5.13;;
45208;SDS011;30951;43.994;26.260;2023-08-06T04:12:51;14.45;;;4.03;;
45208;SDS011;30951;43.994;26.260;2023-08-06T04:15:17;4.07;;;3.53;;
45208;SDS011;30951;43.994;26.260;2023-08-06T04:17:43;5.80;;;3.30;;
45208;SDS011;30951;43.994;26.260;2023-08-06T04:20:08;7.38;;;2.72;;
45208;SDS011;30951;43.994;26.260;2023-08-06T04:22:34;3.65;;;2.65;;
45208;SDS011;30951;43.994;26.260;2023-08-06T04:24:59;4.05;;;2.80;;
45208;SDS011;30951;43.994;26.260;2023-08-06T04:27:25;5.80;;;2.72;;
45208;SDS011;30951;43.994;26.260;2023-08-06T04:29:50;5.40;;;2.65;;
45208;SDS011;30951;43.994;26.260;2023-08-06T04:32:16;3.75;;;2.15;;
45208;SDS011;30951;43.994;26.260;2023-08-06T04:34:42;4.53;;;2.20;;
45208;SDS011;30951;43.994;26.260;2023-08-06T04:37:08;3.17;;;2.22;;
45208;SDS011;30951;43.994;26.260;2023-08-06T04:39:33;7.25;;;2.05;;
45208;SDS011;30951;43.994;26.260;2023-08-06T04:41:59;4.55;;;2.10;;
45208;SDS011;30951;43.994;26.260;2023-08-06T04:44:24;7.40;;;2.10;;
45208;SDS011;30951;43.994;26.260;2023-08-06T04:46:50;5.60;;;1.85;;
45208;SDS011;30951;43.994;26.260;2023-08-06T04:49:16;5.90;;;1.85;;
45208;SDS011;30951;43.994;26.260;2023-08-06T04:51:41;4.13;;;1.90;;
45208;SDS011;30951;43.994;26.260;2023-08-06T04:54:07;2.25;;;2.00;;
45208;SDS011;30951;43.994;26.260;2023-08-06T04:56:32;2.97;;;1.98;;
45208;SDS011;30951;43.994;26.260;2023-08-06T04:58:58;5.15;;;1.98;;
45208;SDS011;30951;43.994;26.260;2023-08-06T05:01:24;7.32;;;2.17;;
45208;SDS011;30951;43.994;26.260;2023-08-06T05:03:50;2.45;;;1.60;;
45208;SDS011;30951;43.994;26.260;2023-08-06T05:06:15;5.00;;;1.90;;
45208;SDS011;30951;43.994;26.260;2023-08-06T05:08:41;2.30;;;2.00;;
45208;SDS011;30951;43.994;26.260;2023-08-06T05:11:06;3.70;;;2.08;;
45208;SDS011;30951;43.994;26.260;2023-08-06T05:13:32;4.57;;;2.20;;
45208;SDS011;30951;43.994;26.260;2023-08-06T05:15:57;4.50;;;1.90;;
45208;SDS011;30951;43.994;26.260;2023-08-06T05:18:23;5.97;;;2.83;;
45208;SDS011;30951;43.994;26.260;2023-08-06T05:20:49;5.45;;;2.47;;
45208;SDS011;30951;43.994;26.260;2023-08-06T05:23:14;10.43;;;2.70;;
45208;SDS011;30951;43.994;26.260;2023-08-06T05:25:40;6.05;;;2.35;;
45208;SDS011;30951;43.994;26.260;2023-08-06T05:28:06;5.53;;;2.90;;
45208;SDS011;30951;43.994;26.260;2023-08-06T05:30:31;4.90;;;2.58;;
45208;SDS011;30951;43.994;26.260;2023-08-06T05:32:57;4.28;;;2.03;;
45208;SDS011;30951;43.994;26.260;2023-08-06T05:35:23;7.55;;;2.97;;
45208;SDS011;30951;43.994;26.260;2023-08-06T05:37:49;5.85;;;2.25;;
45208;SDS011;30951;43.994;26.260;2023-08-06T05:40:15;6.18;;;2.63;;
45208;SDS011;30951;43.994;26.260;2023-08-06T05:42:40;4.68;;;2.40;;
45208;SDS011;30951;43.994;26.260;2023-08-06T05:45:06;7.47;;;2.42;;
45208;SDS011;30951;43.994;26.260;2023-08-06T05:47:32;8.80;;;2.42;;
45208;SDS011;30951;43.994;26.260;2023-08-06T05:49:58;8.85;;;2.95;;
45208;SDS011;30951;43.994;26.260;2023-08-06T05:52:23;6.80;;;2.25;;
45208;SDS011;30951;43.994;26.260;2023-08-06T05:54:49;7.65;;;2.30;;
45208;SDS011;30951;43.994;26.260;2023-08-06T05:57:15;4.93;;;2.38;;
45208;SDS011;30951;43.994;26.260;2023-08-06T05:59:40;6.10;;;2.33;;
45208;SDS011;30951;43.994;26.260;2023-08-06T06:02:06;14.48;;;2.72;;
45208;SDS011;30951;43.994;26.260;2023-08-06T06:04:32;5.82;;;2.47;;
45208;SDS011;30951;43.994;26.260;2023-08-06T06:06:57;3.00;;;2.05;;
45208;SDS011;30951;43.994;26.260;2023-08-06T06:09:23;5.25;;;1.92;;
45208;SDS011;30951;43.994;26.260;2023-08-06T06:11:48;7.13;;;2.28;;
45208;SDS011;30951;43.994;26.260;2023-08-06T06:14:16;5.93;;;2.08;;
45208;SDS011;30951;43.994;26.260;2023-08-06T06:16:42;3.38;;;1.92;;
45208;SDS011;30951;43.994;26.260;2023-08-06T06:19:07;5.28;;;2.20;;
45208;SDS011;30951;43.994;26.260;2023-08-06T06:21:33;4.65;;;2.03;;
45208;SDS011;30951;43.994;26.260;2023-08-06T06:23:58;8.68;;;2.13;;
45208;SDS011;30951;43.994;26.260;2023-08-06T06:26:24;5.85;;;2.42;;
45208;SDS011;30951;43.994;26.260;2023-08-06T06:28:50;5.97;;;2.03;;
45208;SDS011;30951;43.994;26.260;2023-08-06T06:31:15;5.20;;;2.22;;
45208;SDS011;30951;43.994;26.260;2023-08-06T06:33:41;6.93;;;2.20;;
45208;SDS011;30951;43.994;26.260;2023-08-06T06:36:06;3.30;;;2.17;;
45208;SDS011;30951;43.994;26.260;2023-08-06T06:38:33;4.45;;;2.25;;
45208;SDS011;30951;43.994;26.260;2023-08-06T06:40:59;5.47;;;1.63;;
45208;SDS011;30951;43.994;26.260;2023-08-06T06:43:25;6.28;;;2.20;;
45208;SDS011;30951;43.994;26.260;2023-08-06T06:45:57;3.45;;;1.60;;
45208;SDS011;30951;43.994;26.260;2023-08-06T06:48:25;3.83;;;1.60;;
45208;SDS011;30951;43.994;26.260;2023-08-06T06:50:53;10.32;;;2.28;;
45208;SDS011;30951;43.994;26.260;2023-08-06T06:53:19;6.55;;;1.73;;
45208;SDS011;30951;43.994;26.260;2023-08-06T06:55:44;3.95;;;1.98;;
45208;SDS011;30951;43.994;26.260;2023-08-06T06:58:10;5.15;;;1.65;;
45208;SDS011;30951;43.994;26.260;2023-08-06T07:00:36;6.03;;;2.15;;
45208;SDS011;30951;43.994;26.260;2023-08-06T07:03:02;2.97;;;2.17;;
45208;SDS011;30951;43.994;26.260;2023-08-06T07:05:28;3.45;;;1.70;;
45208;SDS011;30951;43.994;26.260;2023-08-06T07:07:53;6.43;;;1.85;;
45208;SDS011;30951;43.994;26.260;2023-08-06T07:10:19;9.27;;;1.88;;
45208;SDS011;30951;43.994;26.260;2023-08-06T07:12:44;3.53;;;1.55;;
45208;SDS011;30951;43.994;26.260;2023-08-06T07:15:10;4.28;;;1.65;;
45208;SDS011;30951;43.994;26.260;2023-08-06T07:17:36;3.45;;;1.60;;
45208;SDS011;30951;43.994;26.260;2023-08-06T07:20:01;6.45;;;1.70;;
45208;SDS011;30951;43.994;26.260;2023-08-06T07:22:27;6.15;;;1.65;;
45208;SDS011;30951;43.994;26.260;2023-08-06T07:24:53;1.63;;;1.52;;
45208;SDS011;30951;43.994;26.260;2023-08-06T07:27:18;5.05;;;1.67;;
45208;SDS011;30951;43.994;26.260;2023-08-06T07:29:44;7.72;;;2.03;;
45208;SDS011;30951;43.994;26.260;2023-08-06T07:32:09;4.72;;;1.83;;
45208;SDS011;30951;43.994;26.260;2023-08-06T07:34:35;4.93;;;1.60;;
45208;SDS011;30951;43.994;26.260;2023-08-06T07:37:00;2.17;;;1.60;;
45208;SDS011;30951;43.994;26.260;2023-08-06T07:39:26;3.10;;;1.50;;
45208;SDS011;30951;43.994;26.260;2023-08-06T07:41:53;1.85;;;1.65;;
45208;SDS011;30951;43.994;26.260;2023-08-06T07:44:19;4.15;;;1.80;;
45208;SDS011;30951;43.994;26.260;2023-08-06T07:46:44;3.22;;;1.55;;
45208;SDS011;30951;43.994;26.260;2023-08-06T07:49:10;4.13;;;1.83;;
45208;SDS011;30951;43.994;26.260;2023-08-06T07:51:36;3.38;;;1.45;;
45208;SDS011;30951;43.994;26.260;2023-08-06T07:54:02;3.45;;;1.80;;
45208;SDS011;30951;43.994;26.260;2023-08-06T07:56:28;2.95;;;2.13;;
45208;SDS011;30951;43.994;26.260;2023-08-06T07:58:54;1.95;;;1.35;;
45208;SDS011;30951;43.994;26.260;2023-08-06T08:01:19;4.82;;;2.15;;
45208;SDS011;30951;43.994;26.260;2023-08-06T08:03:45;3.08;;;1.67;;
45208;SDS011;30951;43.994;26.260;2023-08-06T08:06:10;3.25;;;1.98;;
45208;SDS011;30951;43.994;26.260;2023-08-06T08:08:36;7.18;;;1.90;;
45208;SDS011;30951;43.994;26.260;2023-08-06T08:11:03;1.63;;;1.52;;
45208;SDS011;30951;43.994;26.260;2023-08-06T08:13:29;7.50;;;1.70;;
45208;SDS011;30951;43.994;26.260;2023-08-06T08:15:58;2.92;;;1.73;;
45208;SDS011;30951;43.994;26.260;2023-08-06T08:18:24;1.67;;;1.58;;
45208;SDS011;30951;43.994;26.260;2023-08-06T08:20:50;1.63;;;1.50;;
45208;SDS011;30951;43.994;26.260;2023-08-06T08:23:16;4.28;;;1.58;;
45208;SDS011;30951;43.994;26.260;2023-08-06T08:25:41;5.50;;;1.92;;
45208;SDS011;30951;43.994;26.260;2023-08-06T08:28:07;3.13;;;1.40;;
45208;SDS011;30951;43.994;26.260;2023-08-06T08:30:32;2.25;;;1.35;;
45208;SDS011;30951;43.994;26.260;2023-08-06T08:32:58;2.55;;;1.50;;
45208;SDS011;30951;43.994;26.260;2023-08-06T08:35:24;3.40;;;1.83;;
45208;SDS011;30951;43.994;26.260;2023-08-06T08:37:49;2.63;;;1.40;;
45208;SDS011;30951;43.994;26.260;2023-08-06T08:40:15;3.25;;;1.60;;
45208;SDS011;30951;43.994;26.260;2023-08-06T08:42:41;4.68;;;1.40;;
45208;SDS011;30951;43.994;26.260;2023-08-06T08:45:16;3.53;;;1.38;;
45208;SDS011;30951;43.994;26.260;2023-08-06T08:47:44;11.73;;;2.78;;
45208;SDS011;30951;43.994;26.260;2023-08-06T08:50:12;3.35;;;1.90;;
45208;SDS011;30951;43.994;26.260;2023-08-06T08:52:39;4.03;;;2.20;;
45208;SDS011;30951;43.994;26.260;2023-08-06T08:55:06;4.57;;;1.92;;
45208;SDS011;30951;43.994;26.260;2023-08-06T08:57:32;4.28;;;1.77;;
45208;SDS011;30951;43.994;26.260;2023-08-06T08:59:58;4.55;;;1.98;;
45208;SDS011;30951;43.994;26.260;2023-08-06T09:02:24;4.07;;;1.70;;
45208;SDS011;30951;43.994;26.260;2023-08-06T09:04:50;3.03;;;1.77;;
45208;SDS011;30951;43.994;26.260;2023-08-06T09:07:17;5.97;;;2.88;;
45208;SDS011;30951;43.994;26.260;2023-08-06T09:09:46;2.40;;;1.50;;
45208;SDS011;30951;43.994;26.260;2023-08-06T09:12:13;3.05;;;2.05;;
45208;SDS011;30951;43.994;26.260;2023-08-06T09:14:40;3.03;;;1.67;;
45208;SDS011;30951;43.994;26.260;2023-08-06T09:17:05;4.32;;;1.73;;
45208;SDS011;30951;43.994;26.260;2023-08-06T09:19:31;3.10;;;1.88;;
45208;SDS011;30951;43.994;26.260;2023-08-06T09:21:56;5.88;;;2.33;;
45208;SDS011;30951;43.994;26.260;2023-08-06T09:24:22;5.57;;;1.75;;
45208;SDS011;30951;43.994;26.260;2023-08-06T09:26:48;5.38;;;1.60;;
45208;SDS011;30951;43.994;26.260;2023-08-06T09:29:13;2.35;;;1.92;;
45208;SDS011;30951;43.994;26.260;2023-08-06T09:32:13;4.95;;;2.17;;
45208;SDS011;30951;43.994;26.260;2023-08-06T09:34:31;4.93;;;1.25;;
45208;SDS011;30951;43.994;26.260;2023-08-06T09:36:57;3.42;;;1.63;;
45208;SDS011;30951;43.994;26.260;2023-08-06T09:39:29;1.75;;;1.35;;
45208;SDS011;30951;43.994;26.260;2023-08-06T09:41:59;6.47;;;1.88;;
45208;SDS011;30951;43.994;26.260;2023-08-06T09:44:26;1.73;;;1.37;;
45208;SDS011;30951;43.994;26.260;2023-08-06T09:46:53;3.72;;;1.55;;
45208;SDS011;30951;43.994;26.260;2023-08-06T09:49:19;2.60;;;1.50;;
45208;SDS011;30951;43.994;26.260;2023-08-06T09:51:46;4.25;;;1.70;;
45208;SDS011;30951;43.994;26.260;2023-08-06T09:54:15;4.67;;;1.70;;
45208;SDS011;30951;43.994;26.260;2023-08-06T09:56:41;4.80;;;1.83;;
45208;SDS011;30951;43.994;26.260;2023-08-06T09:59:07;1.50;;;1.40;;
45208;SDS011;30951;43.994;26.260;2023-08-06T10:01:36;2.70;;;1.02;;
45208;SDS011;30951;43.994;26.260;2023-08-06T10:04:02;1.80;;;1.48;;
45208;SDS011;30951;43.994;26.260;2023-08-06T10:06:29;2.97;;;1.50;;
45208;SDS011;30951;43.994;26.260;2023-08-06T10:08:55;1.52;;;1.35;;
45208;SDS011;30951;43.994;26.260;2023-08-06T10:11:21;3.85;;;1.75;;
45208;SDS011;30951;43.994;26.260;2023-08-06T10:13:47;2.92;;;2.05;;
45208;SDS011;30951;43.994;26.260;2023-08-06T10:16:13;1.45;;;1.35;;
45208;SDS011;30951;43.994;26.260;2023-08-06T10:18:40;35.08;;;20.80;;
45208;SDS011;30951;43.994;26.260;2023-08-06T10:21:09;12.40;;;9.02;;
45208;SDS011;30951;43.994;26.260;2023-08-06T10:23:35;6.55;;;1.98;;
45208;SDS011;30951;43.994;26.260;2023-08-06T10:26:03;18.10;;;12.85;;
45208;SDS011;30951;43.994;26.260;2023-08-06T10:28:36;4.95;;;2.20;;
45208;SDS011;30951;43.994;26.260;2023-08-06T10:31:02;2.28;;;2.08;;
45208;SDS011;30951;43.994;26.260;2023-08-06T10:33:44;2.65;;;2.08;;
45208;SDS011;30951;43.994;26.260;2023-08-06T10:36:10;5.55;;;2.10;;
45208;SDS011;30951;43.994;26.260;2023-08-06T10:38:46;3.38;;;1.92;;
45208;SDS011;30951;43.994;26.260;2023-08-06T10:41:22;5.15;;;1.88;;
45208;SDS011;30951;43.994;26.260;2023-08-06T10:44:00;3.17;;;2.08;;
45208;SDS011;30951;43.994;26.260;2023-08-06T10:46:31;3.60;;;1.67;;
45208;SDS011;30951;43.994;26.260;2023-08-06T10:48:56;5.22;;;2.67;;
45208;SDS011;30951;43.994;26.260;2023-08-06T10:51:22;3.25;;;1.85;;
45208;SDS011;30951;43.994;26.260;2023-08-06T10:53:48;4.00;;;2.10;;
45208;SDS011;30951;43.994;26.260;2023-08-06T10:56:21;5.30;;;2.00;;
45208;SDS011;30951;43.994;26.260;2023-08-06T10:58:50;2.47;;;2.25;;
45208;SDS011;30951;43.994;26.260;2023-08-06T11:01:16;7.43;;;2.65;;
45208;SDS011;30951;43.994;26.260;2023-08-06T11:03:44;48.50;;;4.78;;
45208;SDS011;30951;43.994;26.260;2023-08-06T11:06:10;6.35;;;4.30;;
45208;SDS011;30951;43.994;26.260;2023-08-06T11:08:40;10.18;;;4.30;;
45208;SDS011;30951;43.994;26.260;2023-08-06T11:11:08;8.85;;;4.50;;
45208;SDS011;30951;43.994;26.260;2023-08-06T11:13:41;10.70;;;5.25;;
45208;SDS011;30951;43.994;26.260;2023-08-06T11:16:07;8.98;;;4.38;;
45208;SDS011;30951;43.994;26.260;2023-08-06T11:18:34;12.45;;;5.63;;
45208;SDS011;30951;43.994;26.260;2023-08-06T11:21:00;10.65;;;5.70;;
45208;SDS011;30951;43.994;26.260;2023-08-06T11:23:26;11.27;;;5.57;;
45208;SDS011;30951;43.994;26.260;2023-08-06T11:25:53;8.82;;;5.80;;
45208;SDS011;30951;43.994;26.260;2023-08-06T11:28:19;8.32;;;6.07;;
45208;SDS011;30951;43.994;26.260;2023-08-06T11:30:46;8.23;;;6.30;;
45208;SDS011;30951;43.994;26.260;2023-08-06T11:33:12;7.13;;;5.80;;
45208;SDS011;30951;43.994;26.260;2023-08-06T11:35:38;9.73;;;5.22;;
45208;SDS011;30951;43.994;26.260;2023-08-06T11:38:05;6.05;;;5.05;;
45208;SDS011;30951;43.994;26.260;2023-08-06T11:40:31;7.90;;;5.03;;
45208;SDS011;30951;43.994;26.260;2023-08-06T11:42:57;10.38;;;5.22;;
45208;SDS011;30951;43.994;26.260;2023-08-06T11:45:26;7.28;;;4.53;;
45208;SDS011;30951;43.994;26.260;2023-08-06T11:47:51;7.78;;;5.72;;
45208;SDS011;30951;43.994;26.260;2023-08-06T11:50:24;5.22;;;4.60;;
45208;SDS011;30951;43.994;26.260;2023-08-06T11:52:55;5.78;;;4.30;;
45208;SDS011;30951;43.994;26.260;2023-08-06T11:55:23;11.00;;;4.95;;
45208;SDS011;30951;43.994;26.260;2023-08-06T11:57:49;6.28;;;4.47;;
45208;SDS011;30951;43.994;26.260;2023-08-06T12:00:14;5.53;;;4.40;;
45208;SDS011;30951;43.994;26.260;2023-08-06T12:02:43;9.02;;;4.38;;
45208;SDS011;30951;43.994;26.260;2023-08-06T12:07:57;5.43;;;4.63;;
45208;SDS011;30951;43.994;26.260;2023-08-06T12:10:27;10.25;;;4.82;;
45208;SDS011;30951;43.994;26.260;2023-08-06T12:12:54;6.93;;;4.85;;
45208;SDS011;30951;43.994;26.260;2023-08-06T12:15:19;7.20;;;4.45;;
45208;SDS011;30951;43.994;26.260;2023-08-06T12:17:45;8.10;;;4.28;;
45208;SDS011;30951;43.994;26.260;2023-08-06T12:20:11;8.05;;;4.63;;
45208;SDS011;30951;43.994;26.260;2023-08-06T12:22:36;16.98;;;5.20;;
45208;SDS011;30951;43.994;26.260;2023-08-06T12:25:07;6.00;;;4.47;;
45208;SDS011;30951;43.994;26.260;2023-08-06T12:27:37;6.55;;;4.15;;
45208;SDS011;30951;43.994;26.260;2023-08-06T12:30:03;7.97;;;4.47;;
45208;SDS011;30951;43.994;26.260;2023-08-06T12:32:29;7.07;;;4.30;;
45208;SDS011;30951;43.994;26.260;2023-08-06T12:34:55;5.43;;;4.15;;
45208;SDS011;30951;43.994;26.260;2023-08-06T12:37:20;8.63;;;4.70;;
45208;SDS011;30951;43.994;26.260;2023-08-06T12:39:46;5.65;;;4.70;;
45208;SDS011;30951;43.994;26.260;2023-08-06T12:42:12;7.57;;;4.60;;
45208;SDS011;30951;43.994;26.260;2023-08-06T12:44:37;10.85;;;5.47;;
45208;SDS011;30951;43.994;26.260;2023-08-06T12:47:03;7.45;;;5.68;;
45208;SDS011;30951;43.994;26.260;2023-08-06T12:49:28;10.32;;;5.40;;
45208;SDS011;30951;43.994;26.260;2023-08-06T12:51:55;10.57;;;6.60;;
45208;SDS011;30951;43.994;26.260;2023-08-06T12:54:22;8.50;;;5.97;;
45208;SDS011;30951;43.994;26.260;2023-08-06T12:56:48;14.00;;;8.20;;
45208;SDS011;30951;43.994;26.260;2023-08-06T12:59:14;13.55;;;7.78;;
45208;SDS011;30951;43.994;26.260;2023-08-06T13:01:40;8.07;;;5.18;;
45208;SDS011;30951;43.994;26.260;2023-08-06T13:04:05;8.55;;;5.20;;
45208;SDS011;30951;43.994;26.260;2023-08-06T13:06:31;7.00;;;4.90;;
45208;SDS011;30951;43.994;26.260;2023-08-06T13:09:04;7.93;;;4.90;;
45208;SDS011;30951;43.994;26.260;2023-08-06T13:11:33;5.65;;;4.15;;
45208;SDS011;30951;43.994;26.260;2023-08-06T13:14:06;6.97;;;4.82;;
45208;SDS011;30951;43.994;26.260;2023-08-06T13:16:36;5.55;;;4.35;;
45208;SDS011;30951;43.994;26.260;2023-08-06T13:19:03;6.88;;;3.80;;
45208;SDS011;30951;43.994;26.260;2023-08-06T13:21:32;11.02;;;4.00;;
45208;SDS011;30951;43.994;26.260;2023-08-06T13:23:59;4.55;;;3.30;;
45208;SDS011;30951;43.994;26.260;2023-08-06T13:26:31;5.68;;;3.55;;
45208;SDS011;30951;43.994;26.260;2023-08-06T13:28:57;4.65;;;2.70;;
45208;SDS011;30951;43.994;26.260;2023-08-06T13:31:23;3.88;;;2.80;;
45208;SDS011;30951;43.994;26.260;2023-08-06T13:33:48;3.05;;;2.47;;
45208;SDS011;30951;43.994;26.260;2023-08-06T13:36:15;3.78;;;2.88;;
45208;SDS011;30951;43.994;26.260;2023-08-06T13:38:41;4.00;;;2.40;;
45208;SDS011;30951;43.994;26.260;2023-08-06T13:41:06;3.72;;;2.40;;
45208;SDS011;30951;43.994;26.260;2023-08-06T13:43:32;2.33;;;2.20;;
45208;SDS011;30951;43.994;26.260;2023-08-06T13:45:58;3.45;;;2.20;;
45208;SDS011;30951;43.994;26.260;2023-08-06T13:48:24;2.95;;;2.33;;
45208;SDS011;30951;43.994;26.260;2023-08-06T13:50:49;3.00;;;2.60;;
45208;SDS011;30951;43.994;26.260;2023-08-06T13:53:15;2.97;;;2.30;;
45208;SDS011;30951;43.994;26.260;2023-08-06T13:55:40;2.38;;;2.17;;
45208;SDS011;30951;43.994;26.260;2023-08-06T13:58:06;3.03;;;2.38;;
45208;SDS011;30951;43.994;26.260;2023-08-06T14:00:31;3.55;;;3.08;;
45208;SDS011;30951;43.994;26.260;2023-08-06T14:02:57;6.15;;;2.38;;
45208;SDS011;30951;43.994;26.260;2023-08-06T14:05:22;2.50;;;2.25;;
45208;SDS011;30951;43.994;26.260;2023-08-06T14:07:48;4.05;;;2.10;;
45208;SDS011;30951;43.994;26.260;2023-08-06T14:10:13;5.53;;;2.17;;
45208;SDS011;30951;43.994;26.260;2023-08-06T14:12:39;2.10;;;1.83;;
45208;SDS011;30951;43.994;26.260;2023-08-06T14:15:05;2.30;;;2.10;;
45208;SDS011;30951;43.994;26.260;2023-08-06T14:17:31;1.95;;;1.77;;
45208;SDS011;30951;43.994;26.260;2023-08-06T14:19:56;3.70;;;1.83;;
45208;SDS011;30951;43.994;26.260;2023-08-06T14:22:22;2.90;;;1.73;;
45208;SDS011;30951;43.994;26.260;2023-08-06T14:24:47;3.67;;;1.63;;
45208;SDS011;30951;43.994;26.260;2023-08-06T14:27:13;1.50;;;1.40;;
45208;SDS011;30951;43.994;26.260;2023-08-06T14:29:38;1.75;;;1.40;;